Terminal Aerodrome Forecast
Issued by NWS

Home | Current Version | Previous Version | Text Only | Print | Product List | Glossary On
Versions: 1 2 3 4 5 6 7 8 9 10 11 12 13 14 15 16
700
FTUS43 KDLH 142339
TAFHIB
TAF
KHIB 142339Z 1500/1524 09005KT P6SM VCSH OVC090
     FM150200 02006KT P6SM -SHRA OVC030
     FM150600 34007KT P6SM -SHRA OVC015
     FM150800 34005KT P6SM VCSH OVC025
     FM151000 33005KT P6SM BKN060
     FM151700 28006KT P6SM SCT250=

USA.gov is the U.S. government's official web portal to all federal, state and local government web resources and services.